aviador You're here:

OIFM Decoded Metar

ESFAHAN in IRAN
Report Time2018-07-21 08:00:00
UTC Time2018-07-21 08:12:31
Flight Rules vfr VFR
Wind220° at 14 kt
W.Decomp.*RWY 26: 10.4 kt HW 9.4 kt LCW
W.Rank220° ranks 24
Current wind is above 220° avg. (7.6)
Visibility9999 m
Phenomena:N/A
Clouds:Few 040 Hf
Expected CloudBase > 16,000 ft AGL from Temp-Dew spread
CeilingNone
Temp37°C (ISA +32)
Dew Point-3°C (8% RH)
Heat Index34.0°C
AAT29.6°C
QNH1011 hPa
Density Alt8,757 ft
Elevation5,059 ft
Report Wrong Elevation
Raw Report
METAR OIFM 210800Z 22014KT 9999 FEW040 37/M03 Q1011 A2987=

Extra information for OIFM:More info

Metar Taf Metar & Taf Last 4 Metars F.Rules Stats Wind Profile Meteogram Temp Stats Airport Information Weather charts Add Link Nearby VenuesMetar ALERT Operation Metar Decoded Social comments